createdAt,value
2023-05-17T00:01:11.060Z,4.88
2023-05-17T00:03:56.505Z,4.78
2023-05-17T00:06:42.409Z,4.63
2023-05-17T00:09:27.825Z,4.63
2023-05-17T00:12:13.021Z,4.70
2023-05-17T00:14:58.912Z,4.68
2023-05-17T00:17:44.204Z,4.80
2023-05-17T00:20:29.499Z,5.18
2023-05-17T00:23:14.868Z,5.15
2023-05-17T00:26:00.293Z,4.80
2023-05-17T00:28:45.842Z,4.90
2023-05-17T00:31:31.014Z,6.07
2023-05-17T00:34:16.323Z,5.18
2023-05-17T00:37:01.419Z,5.10
2023-05-17T00:39:46.615Z,5.10
2023-05-17T00:42:31.848Z,6.05
2023-05-17T00:45:17.459Z,5.35
2023-05-17T00:48:02.999Z,5.82
2023-05-17T00:50:48.742Z,5.60
2023-05-17T00:53:34.162Z,5.50
2023-05-17T00:56:19.531Z,6.17
2023-05-17T00:59:06.557Z,6.00
2023-05-17T01:01:52.419Z,5.47
2023-05-17T01:04:38.684Z,5.67
2023-05-17T01:07:23.898Z,5.40
2023-05-17T01:10:09.818Z,5.73
2023-05-17T01:13:02.379Z,6.77
2023-05-17T01:15:57.184Z,6.17
2023-05-17T01:18:52.663Z,6.30
2023-05-17T01:22:02.525Z,5.88
2023-05-17T01:24:50.858Z,6.32
2023-05-17T01:27:39.772Z,6.68
2023-05-17T01:30:25.910Z,6.37
2023-05-17T01:33:12.429Z,5.43
2023-05-17T01:35:58.030Z,5.70
2023-05-17T01:38:43.216Z,6.15
2023-05-17T01:41:40.621Z,6.32
2023-05-17T01:44:37.726Z,5.88
2023-05-17T01:47:31.432Z,6.22
2023-05-17T01:50:19.664Z,6.18
2023-05-17T01:53:11.652Z,6.70
2023-05-17T01:56:10.445Z,6.35
2023-05-17T01:58:57.073Z,6.67
2023-05-17T02:01:42.767Z,7.23
2023-05-17T02:04:30.113Z,7.00
2023-05-17T02:07:15.675Z,7.10
2023-05-17T02:10:00.852Z,7.03
2023-05-17T02:12:46.336Z,6.38
2023-05-17T02:15:32.499Z,6.90
2023-05-17T02:18:17.559Z,7.10
2023-05-17T02:21:03.003Z,6.60
2023-05-17T02:23:48.255Z,7.00
2023-05-17T02:26:33.584Z,5.80
2023-05-17T02:29:18.962Z,6.97
2023-05-17T02:32:04.408Z,7.05
2023-05-17T02:34:49.847Z,6.90
2023-05-17T02:37:34.753Z,6.78
2023-05-17T02:40:20.574Z,7.20
2023-05-17T02:43:05.493Z,6.70
2023-05-17T02:45:50.965Z,6.47
2023-05-17T02:48:35.799Z,7.10
2023-05-17T02:51:21.150Z,7.20
2023-05-17T02:54:06.519Z,6.93
2023-05-17T02:56:52.036Z,6.47
2023-05-17T02:59:37.478Z,7.78
2023-05-17T03:02:22.881Z,6.80
2023-05-17T03:05:08.513Z,7.47
2023-05-17T03:07:53.404Z,7.63
2023-05-17T03:10:38.799Z,7.35
2023-05-17T03:13:24.029Z,7.10
2023-05-17T03:16:09.337Z,7.15
2023-05-17T03:18:54.925Z,7.07
2023-05-17T03:21:40.124Z,7.57
2023-05-17T03:24:25.366Z,8.00
2023-05-17T03:27:10.764Z,8.95
2023-05-17T03:29:56.027Z,7.47
2023-05-17T03:32:41.969Z,8.40
2023-05-17T03:35:27.321Z,7.73
2023-05-17T03:38:12.919Z,7.70
2023-05-17T03:40:58.455Z,7.97
2023-05-17T03:43:43.620Z,8.63
2023-05-17T03:46:29.069Z,8.13
2023-05-17T03:49:14.723Z,8.53
2023-05-17T03:51:59.697Z,8.37
2023-05-17T03:54:46.313Z,8.80
2023-05-17T03:57:33.388Z,8.57
2023-05-17T04:00:18.585Z,8.10
2023-05-17T04:03:03.841Z,8.57
2023-05-17T04:05:49.467Z,8.07
2023-05-17T04:08:35.137Z,8.23
2023-05-17T04:11:20.590Z,7.70
2023-05-17T04:14:06.164Z,7.97
2023-05-17T04:16:51.344Z,8.10
2023-05-17T04:19:36.726Z,7.93
2023-05-17T04:22:22.145Z,8.60
2023-05-17T04:25:07.937Z,8.77
2023-05-17T04:27:53.118Z,8.90
2023-05-17T04:30:43.172Z,9.67
2023-05-17T04:33:28.339Z,8.87
2023-05-17T04:36:13.599Z,8.48
2023-05-17T04:38:58.690Z,8.50
2023-05-17T04:41:43.980Z,9.03
2023-05-17T04:44:29.544Z,8.33
2023-05-17T04:47:14.824Z,8.63
2023-05-17T04:50:00.009Z,8.53
2023-05-17T04:52:48.521Z,9.02
2023-05-17T04:55:33.906Z,8.65
2023-05-17T04:58:19.182Z,8.40
2023-05-17T05:01:05.581Z,8.40
2023-05-17T05:03:50.597Z,8.73
2023-05-17T05:06:35.930Z,8.45
2023-05-17T05:09:21.385Z,8.23
2023-05-17T05:12:07.058Z,9.35
2023-05-17T05:14:52.432Z,9.50
2023-05-17T05:17:37.906Z,8.85
2023-05-17T05:20:24.669Z,9.18
2023-05-17T05:23:11.695Z,8.90
2023-05-17T05:25:57.234Z,9.45
2023-05-17T05:28:42.599Z,8.95
2023-05-17T05:31:28.140Z,9.10
2023-05-17T05:34:13.513Z,7.75
2023-05-17T05:36:58.714Z,8.73
2023-05-17T05:39:44.040Z,8.73
2023-05-17T05:42:29.424Z,8.70
2023-05-17T05:45:14.548Z,8.40
2023-05-17T05:47:59.891Z,8.13
2023-05-17T05:50:45.367Z,8.45
2023-05-17T05:53:30.422Z,7.63
2023-05-17T05:56:15.689Z,8.02
2023-05-17T05:59:01.136Z,8.07
2023-05-17T06:01:46.846Z,8.27
2023-05-17T06:04:43.805Z,7.68
2023-05-17T06:07:29.964Z,6.82
2023-05-17T06:10:14.906Z,7.13
2023-05-17T06:13:00.362Z,7.60
2023-05-17T06:15:45.540Z,7.55
2023-05-17T06:18:30.832Z,6.70
2023-05-17T06:21:16.325Z,6.43
2023-05-17T06:24:02.875Z,6.45
2023-05-17T06:26:50.018Z,6.13
2023-05-17T06:29:35.786Z,7.03
2023-05-17T06:32:20.666Z,6.05
2023-05-17T06:35:06.652Z,6.13
2023-05-17T06:37:52.049Z,5.82
2023-05-17T06:40:37.279Z,5.38
2023-05-17T06:43:23.036Z,5.35
2023-05-17T06:46:08.662Z,4.68
2023-05-17T06:48:54.034Z,4.82
2023-05-17T06:51:39.585Z,4.85
2023-05-17T06:54:25.041Z,5.18
2023-05-17T06:57:10.198Z,4.72
2023-05-17T06:59:55.590Z,6.03
2023-05-17T07:02:41.015Z,5.65
2023-05-17T07:05:26.592Z,6.10
2023-05-17T07:08:11.431Z,5.72
2023-05-17T07:10:57.154Z,5.57
2023-05-17T07:13:42.447Z,4.95
2023-05-17T07:16:27.935Z,5.03
2023-05-17T07:19:13.494Z,4.75
2023-05-17T07:21:58.810Z,4.40
2023-05-17T07:24:44.635Z,4.20
2023-05-17T07:27:30.243Z,4.30
2023-05-17T07:30:15.265Z,4.38
2023-05-17T07:33:00.838Z,4.28
2023-05-17T07:35:46.164Z,4.57
2023-05-17T07:38:31.905Z,4.25
2023-05-17T07:41:17.044Z,3.40
2023-05-17T07:44:02.317Z,3.90
2023-05-17T07:46:49.943Z,3.72
2023-05-17T07:49:34.997Z,3.70
2023-05-17T07:52:20.362Z,3.58
2023-05-17T07:55:05.742Z,3.47
2023-05-17T07:57:51.071Z,3.30
2023-05-17T08:00:36.434Z,3.30
2023-05-17T08:03:21.455Z,3.20
2023-05-17T08:06:07.075Z,3.45
2023-05-17T08:08:52.318Z,3.05
2023-05-17T08:11:37.580Z,2.80
2023-05-17T08:14:23.806Z,2.90
2023-05-17T08:17:09.377Z,2.90
2023-05-17T08:19:54.888Z,2.65
2023-05-17T08:22:40.067Z,2.78
2023-05-17T08:25:25.612Z,3.00
2023-05-17T08:28:10.648Z,2.78
2023-05-17T08:30:55.696Z,2.95
2023-05-17T08:33:41.324Z,2.90
2023-05-17T08:36:26.573Z,2.70
2023-05-17T08:39:11.998Z,2.85
2023-05-17T08:41:57.387Z,2.65
2023-05-17T08:44:42.384Z,2.42
2023-05-17T08:47:28.978Z,2.40
2023-05-17T08:50:13.870Z,2.42
2023-05-17T08:52:59.611Z,2.75
2023-05-17T08:55:46.955Z,2.80
2023-05-17T08:58:47.984Z,2.40
2023-05-17T09:01:42.812Z,2.50
2023-05-17T09:04:29.656Z,2.83
2023-05-17T09:07:17.183Z,2.70
2023-05-17T09:10:02.699Z,2.60
2023-05-17T09:12:48.537Z,2.50
2023-05-17T09:15:33.594Z,3.03
2023-05-17T09:18:19.611Z,2.05
2023-05-17T09:21:05.386Z,2.55
2023-05-17T09:24:05.509Z,2.22
2023-05-17T09:26:52.321Z,2.80
2023-05-17T09:29:39.385Z,2.75
2023-05-17T09:32:24.448Z,2.40
2023-05-17T09:35:10.333Z,2.38
2023-05-17T09:38:10.167Z,2.33
2023-05-17T09:40:55.470Z,2.58
2023-05-17T09:43:40.801Z,2.50
2023-05-17T09:46:26.034Z,2.78
2023-05-17T09:49:11.297Z,2.60
2023-05-17T09:51:56.678Z,2.70
2023-05-17T09:54:41.647Z,2.60
2023-05-17T09:57:29.017Z,2.30
2023-05-17T10:00:15.940Z,2.60
2023-05-17T10:03:03.810Z,2.50
2023-05-17T10:05:51.604Z,2.70
2023-05-17T10:08:38.450Z,2.60
2023-05-17T10:11:30.212Z,2.67
2023-05-17T10:14:18.816Z,2.65
2023-05-17T10:17:04.561Z,2.33
2023-05-17T10:19:50.956Z,2.42
2023-05-17T10:22:37.538Z,2.58
2023-05-17T10:25:23.789Z,2.38
2023-05-17T10:28:10.982Z,2.45
2023-05-17T10:30:58.961Z,2.28
2023-05-17T10:33:47.191Z,2.75
2023-05-17T10:36:33.790Z,2.60
2023-05-17T10:39:21.428Z,2.20
2023-05-17T10:42:14.657Z,2.67
2023-05-17T10:45:01.607Z,2.85
2023-05-17T10:47:46.581Z,2.67
2023-05-17T10:50:32.334Z,2.65
2023-05-17T10:53:17.815Z,2.65
2023-05-17T10:56:03.365Z,2.78
2023-05-17T10:58:48.694Z,2.80
2023-05-17T11:01:53.646Z,2.80
2023-05-17T11:04:50.173Z,3.10
2023-05-17T11:07:35.623Z,3.00
2023-05-17T11:10:21.481Z,2.78
2023-05-17T11:13:25.284Z,2.40
2023-05-17T11:16:10.545Z,2.60
2023-05-17T11:19:06.259Z,2.63
2023-05-17T11:21:51.752Z,2.42
2023-05-17T11:24:42.182Z,2.53
2023-05-17T11:27:35.665Z,2.90
2023-05-17T11:30:34.400Z,3.00
2023-05-17T11:33:32.324Z,2.80
2023-05-17T11:36:20.508Z,3.05
2023-05-17T11:39:13.830Z,2.80
2023-05-17T11:41:58.972Z,3.35
2023-05-17T11:44:44.430Z,2.75
2023-05-17T11:47:30.098Z,2.70
2023-05-17T11:50:15.471Z,2.75
2023-05-17T11:53:00.841Z,3.10
2023-05-17T11:55:51.019Z,2.67
2023-05-17T11:58:36.946Z,3.10
2023-05-17T12:01:22.091Z,2.75
2023-05-17T12:04:07.542Z,3.20
2023-05-17T12:06:56.487Z,2.97
2023-05-17T12:09:44.736Z,3.22
2023-05-17T12:12:30.317Z,2.70
2023-05-17T12:15:19.031Z,2.75
2023-05-17T12:18:04.524Z,3.13
2023-05-17T12:20:53.962Z,2.97
2023-05-17T12:23:41.040Z,3.08
2023-05-17T12:26:26.487Z,3.10
2023-05-17T12:29:12.890Z,2.83
2023-05-17T12:31:59.318Z,3.35
2023-05-17T12:34:45.364Z,2.88
2023-05-17T12:37:30.663Z,3.13
2023-05-17T12:40:15.647Z,3.08
2023-05-17T12:43:02.390Z,3.33
2023-05-17T12:45:47.763Z,3.00
2023-05-17T12:48:38.192Z,2.97
2023-05-17T12:51:23.838Z,3.17
2023-05-17T12:54:09.133Z,3.03
2023-05-17T12:56:54.524Z,3.00
2023-05-17T12:59:47.322Z,2.70
2023-05-17T13:02:32.593Z,2.92
2023-05-17T13:05:18.457Z,3.42
2023-05-17T13:08:20.072Z,3.00
2023-05-17T13:11:10.035Z,3.25
2023-05-17T13:13:55.287Z,2.95
2023-05-17T13:16:40.898Z,3.33
2023-05-17T13:19:26.609Z,3.67
2023-05-17T13:22:11.813Z,3.30
2023-05-17T13:24:56.946Z,2.97
2023-05-17T13:27:42.381Z,3.03
2023-05-17T13:30:27.767Z,3.47
2023-05-17T13:33:13.062Z,3.28
2023-05-17T13:35:58.564Z,3.60
2023-05-17T13:38:43.760Z,3.00
2023-05-17T13:41:29.289Z,2.90
2023-05-17T13:44:15.187Z,3.55
2023-05-17T13:47:00.559Z,3.65
2023-05-17T13:49:45.861Z,3.13
2023-05-17T13:52:31.233Z,3.15
2023-05-17T13:55:16.598Z,3.13
2023-05-17T13:58:01.624Z,3.70
2023-05-17T14:00:46.935Z,3.42
2023-05-17T14:03:32.448Z,3.33
2023-05-17T14:06:18.333Z,3.40
2023-05-17T14:09:03.736Z,4.03
2023-05-17T14:11:49.208Z,3.53
2023-05-17T14:14:34.610Z,3.33
2023-05-17T14:17:19.508Z,3.53
2023-05-17T14:20:05.680Z,3.10
2023-05-17T14:22:50.874Z,3.00
2023-05-17T14:25:37.559Z,2.72
2023-05-17T14:28:22.897Z,3.00
2023-05-17T14:31:09.296Z,2.80
2023-05-17T14:33:54.588Z,3.17
2023-05-17T14:36:40.158Z,3.20
2023-05-17T14:39:25.584Z,2.80
2023-05-17T14:42:11.014Z,3.35
2023-05-17T14:44:56.457Z,3.13
2023-05-17T14:47:41.654Z,3.25
2023-05-17T14:50:27.302Z,2.90
2023-05-17T14:53:12.904Z,3.13
2023-05-17T14:55:58.460Z,3.00
2023-05-17T14:58:43.609Z,3.20
2023-05-17T15:01:29.012Z,3.03
2023-05-17T15:04:14.441Z,3.03
2023-05-17T15:06:59.784Z,3.10
2023-05-17T15:09:45.036Z,3.40
2023-05-17T15:12:30.730Z,2.85
2023-05-17T15:15:15.913Z,3.00
2023-05-17T15:18:01.092Z,3.20
2023-05-17T15:20:46.424Z,3.13
2023-05-17T15:23:31.727Z,3.00
2023-05-17T15:26:17.122Z,3.45
2023-05-17T15:29:02.143Z,3.10
2023-05-17T15:31:47.461Z,2.88
2023-05-17T15:34:32.723Z,3.10
2023-05-17T15:37:17.563Z,3.05
2023-05-17T15:40:10.226Z,3.33
2023-05-17T15:42:55.477Z,3.08
2023-05-17T15:45:40.627Z,3.03
2023-05-17T15:48:25.882Z,3.72
2023-05-17T15:51:11.097Z,2.90
2023-05-17T15:53:56.512Z,2.70
2023-05-17T15:56:41.356Z,2.58
2023-05-17T15:59:26.130Z,2.85
2023-05-17T16:02:11.493Z,2.58
2023-05-17T16:04:56.775Z,3.28
2023-05-17T16:07:41.641Z,3.20
2023-05-17T16:10:27.166Z,3.47
2023-05-17T16:13:12.571Z,3.05
2023-05-17T16:15:58.536Z,3.17
2023-05-17T16:18:43.698Z,2.70
2023-05-17T16:21:29.354Z,3.03
2023-05-17T16:24:14.677Z,3.03
2023-05-17T16:27:00.141Z,2.80
2023-05-17T16:29:45.027Z,3.25
2023-05-17T16:32:30.525Z,3.25
2023-05-17T16:35:16.679Z,2.70
2023-05-17T16:38:01.618Z,2.88
2023-05-17T16:40:47.184Z,3.25
2023-05-17T16:43:32.403Z,2.90
2023-05-17T16:46:17.651Z,2.72
2023-05-17T16:49:02.992Z,2.60
2023-05-17T16:51:48.024Z,3.10
2023-05-17T16:54:34.703Z,3.35
2023-05-17T16:57:19.997Z,3.00
2023-05-17T17:00:06.025Z,3.05
2023-05-17T17:02:51.286Z,2.95
2023-05-17T17:05:36.736Z,3.10
2023-05-17T17:08:22.082Z,3.10
2023-05-17T17:11:07.060Z,2.97
2023-05-17T17:13:52.258Z,3.00
2023-05-17T17:16:38.248Z,2.47
2023-05-17T17:19:23.579Z,3.30
2023-05-17T17:22:08.927Z,3.00
2023-05-17T17:24:53.839Z,3.00
2023-05-17T17:27:39.232Z,2.60
2023-05-17T17:30:24.668Z,2.85
2023-05-17T17:33:09.988Z,3.22
2023-05-17T17:35:55.703Z,2.80
2023-05-17T17:38:40.829Z,3.00
2023-05-17T17:41:25.712Z,3.15
2023-05-17T17:44:11.055Z,3.25
2023-05-17T17:46:56.023Z,2.70
2023-05-17T17:49:41.358Z,3.13
2023-05-17T17:52:26.781Z,2.30
2023-05-17T17:55:12.101Z,2.97
2023-05-17T17:57:56.865Z,2.97
2023-05-17T18:00:41.736Z,3.20
2023-05-17T18:03:27.248Z,3.08
2023-05-17T18:06:12.694Z,3.25
2023-05-17T18:08:57.649Z,3.00
2023-05-17T18:11:42.980Z,3.15
2023-05-17T18:14:28.040Z,3.28
2023-05-17T18:17:13.424Z,2.90
2023-05-17T18:19:58.340Z,3.40
2023-05-17T18:22:43.877Z,2.97
2023-05-17T18:25:29.192Z,2.92
2023-05-17T18:28:14.597Z,3.40
2023-05-17T18:30:59.862Z,3.17
2023-05-17T18:33:45.753Z,3.15
2023-05-17T18:36:30.750Z,2.90
2023-05-17T18:39:16.276Z,3.15
2023-05-17T18:42:01.564Z,3.10
2023-05-17T18:44:47.252Z,3.20
2023-05-17T18:47:32.443Z,3.22
2023-05-17T18:50:17.769Z,3.08
2023-05-17T18:53:03.128Z,3.03
2023-05-17T18:55:48.510Z,3.10
2023-05-17T18:58:33.377Z,3.15
2023-05-17T19:01:18.612Z,3.10
2023-05-17T19:04:03.768Z,3.78
2023-05-17T19:06:49.028Z,2.90
2023-05-17T19:09:34.014Z,3.25
2023-05-17T19:12:19.222Z,3.30
2023-05-17T19:15:04.860Z,3.33
2023-05-17T19:17:50.267Z,3.28
2023-05-17T19:20:35.684Z,2.92
2023-05-17T19:23:20.918Z,2.85
2023-05-17T19:26:05.913Z,3.30
2023-05-17T19:28:50.757Z,3.13
2023-05-17T19:31:36.138Z,3.30
2023-05-17T19:34:21.618Z,3.00
2023-05-17T19:37:06.591Z,3.10
2023-05-17T19:39:52.100Z,3.25
2023-05-17T19:42:37.005Z,3.08
2023-05-17T19:45:22.369Z,2.95
2023-05-17T19:48:07.875Z,3.30
2023-05-17T19:50:54.964Z,3.80
2023-05-17T19:53:52.421Z,3.55
2023-05-17T19:56:38.329Z,4.55
2023-05-17T19:59:23.279Z,3.90
2023-05-17T20:02:08.173Z,4.03
2023-05-17T20:04:53.032Z,4.20
2023-05-17T20:07:37.905Z,3.33
2023-05-17T20:10:22.884Z,3.42
2023-05-17T20:13:07.774Z,3.30
2023-05-17T20:15:52.753Z,3.22
2023-05-17T20:18:42.273Z,3.38
2023-05-17T20:21:27.856Z,3.85
2023-05-17T20:24:13.096Z,5.20
2023-05-17T20:26:57.926Z,5.32
2023-05-17T20:29:43.345Z,5.35
2023-05-17T20:32:29.131Z,5.25
2023-05-17T20:35:14.188Z,4.28
2023-05-17T20:37:59.443Z,4.20
2023-05-17T20:40:44.839Z,3.80
2023-05-17T20:43:30.150Z,3.90
2023-05-17T20:46:16.172Z,3.22
2023-05-17T20:49:01.215Z,3.80
2023-05-17T20:51:46.833Z,3.20
2023-05-17T20:54:31.859Z,3.20
2023-05-17T20:57:16.973Z,3.30
2023-05-17T21:00:03.243Z,3.45
2023-05-17T21:02:48.714Z,4.07
2023-05-17T21:05:33.970Z,4.10
2023-05-17T21:08:19.337Z,3.58
2023-05-17T21:11:04.518Z,3.60
2023-05-17T21:13:50.046Z,3.47
2023-05-17T21:16:35.207Z,3.60
2023-05-17T21:19:20.670Z,4.13
2023-05-17T21:22:05.831Z,3.90
2023-05-17T21:24:52.180Z,3.97
2023-05-17T21:27:38.089Z,3.60
2023-05-17T21:30:23.875Z,3.75
2023-05-17T21:33:08.955Z,3.97
2023-05-17T21:35:54.094Z,3.47
2023-05-17T21:38:39.673Z,3.78
2023-05-17T21:41:24.850Z,4.40
2023-05-17T21:44:09.837Z,4.07
2023-05-17T21:46:56.882Z,3.67
2023-05-17T21:49:42.184Z,3.92
2023-05-17T21:52:27.219Z,4.28
2023-05-17T21:55:11.976Z,4.13
2023-05-17T21:57:57.049Z,4.20
2023-05-17T22:00:42.421Z,4.10
2023-05-17T22:03:27.570Z,4.25
2023-05-17T22:06:12.764Z,4.30
2023-05-17T22:08:58.024Z,4.50
2023-05-17T22:11:42.873Z,4.03
2023-05-17T22:14:28.487Z,4.60
2023-05-17T22:17:13.719Z,4.53
2023-05-17T22:20:01.308Z,4.95
2023-05-17T22:22:46.212Z,5.20
2023-05-17T22:25:31.091Z,5.40
2023-05-17T22:28:16.562Z,7.88
2023-05-17T22:31:02.396Z,7.80
2023-05-17T22:33:50.376Z,5.93
2023-05-17T22:36:35.384Z,5.88
2023-05-17T22:39:20.778Z,5.90
2023-05-17T22:42:07.338Z,5.22
2023-05-17T22:44:52.434Z,5.20
2023-05-17T22:47:38.172Z,4.70
2023-05-17T22:50:23.447Z,4.97
2023-05-17T22:53:09.080Z,5.27
2023-05-17T22:55:54.393Z,5.70
2023-05-17T22:58:39.488Z,6.27
2023-05-17T23:01:24.992Z,6.13
2023-05-17T23:04:10.238Z,5.60
2023-05-17T23:06:56.976Z,5.33
2023-05-17T23:09:42.501Z,5.07
2023-05-17T23:12:27.301Z,4.70
2023-05-17T23:15:12.858Z,4.93
2023-05-17T23:17:58.267Z,4.87
2023-05-17T23:20:44.305Z,5.53
2023-05-17T23:23:29.866Z,4.93
2023-05-17T23:26:14.794Z,5.07
2023-05-17T23:28:59.913Z,5.07
2023-05-17T23:31:45.197Z,5.40
2023-05-17T23:34:30.672Z,5.30
2023-05-17T23:37:16.861Z,5.20
2023-05-17T23:40:03.218Z,5.23
2023-05-17T23:42:48.587Z,5.80
2023-05-17T23:45:33.490Z,5.67
2023-05-17T23:48:18.957Z,5.10
2023-05-17T23:51:04.659Z,5.60
2023-05-17T23:53:49.827Z,6.30
2023-05-17T23:56:34.912Z,5.70
2023-05-17T23:59:20.411Z,5.77
